createdAt,value
2023-03-29T00:00:18.748Z,9.719148
2023-03-29T00:01:35.725Z,9.719147
2023-03-29T00:02:18.700Z,9.718985
2023-03-29T00:03:18.924Z,9.719231
2023-03-29T00:04:18.717Z,9.719107
2023-03-29T00:05:18.676Z,9.719255
2023-03-29T00:06:18.634Z,9.718987
2023-03-29T00:07:18.633Z,9.718962
2023-03-29T00:08:18.617Z,9.718959
2023-03-29T00:09:18.613Z,9.719096
2023-03-29T00:10:18.622Z,9.719429
2023-03-29T00:11:18.585Z,9.719385
2023-03-29T00:12:18.615Z,9.719269
2023-03-29T00:13:18.587Z,9.719126
2023-03-29T00:14:18.602Z,9.719149
2023-03-29T00:15:18.557Z,9.719439
2023-03-29T00:16:18.587Z,9.719338
2023-03-29T00:17:18.524Z,9.719137
2023-03-29T00:18:18.530Z,9.719075
2023-03-29T00:19:18.528Z,9.719208
2023-03-29T00:20:18.514Z,9.719098
2023-03-29T00:21:18.555Z,9.719030
2023-03-29T00:22:18.478Z,9.719058
2023-03-29T00:23:18.470Z,9.719028
2023-03-29T00:24:18.496Z,9.719153
2023-03-29T00:25:18.455Z,9.719102
2023-03-29T00:26:18.474Z,9.719080
2023-03-29T00:27:18.521Z,9.719137
2023-03-29T00:28:18.441Z,9.719110
2023-03-29T00:29:18.432Z,9.719148
2023-03-29T00:30:18.435Z,9.719195
2023-03-29T00:31:18.438Z,9.719227
2023-03-29T00:32:18.420Z,9.719293
2023-03-29T00:33:18.404Z,9.719254
2023-03-29T00:34:18.402Z,9.719311
2023-03-29T00:35:18.364Z,9.719241
2023-03-29T00:36:18.366Z,9.719193
2023-03-29T00:37:18.396Z,9.719135
2023-03-29T00:38:18.387Z,9.719106
2023-03-29T00:39:18.336Z,9.719091
2023-03-29T00:40:18.321Z,9.719063
2023-03-29T00:41:18.299Z,9.719024
2023-03-29T00:42:18.320Z,9.719053
2023-03-29T00:43:18.312Z,9.719001
2023-03-29T00:44:18.261Z,9.719013
2023-03-29T00:45:18.261Z,9.719037
2023-03-29T00:46:18.325Z,9.719059
2023-03-29T00:47:18.262Z,9.719025
2023-03-29T00:48:18.240Z,9.719045
2023-03-29T00:49:18.259Z,9.719095
2023-03-29T00:50:18.203Z,9.719097
2023-03-29T00:51:18.218Z,9.719185
2023-03-29T00:52:18.201Z,9.719266
2023-03-29T00:53:18.241Z,9.719311
2023-03-29T00:54:18.189Z,9.719456
2023-03-29T00:55:18.177Z,9.719476
2023-03-29T00:56:18.149Z,9.719475
2023-03-29T00:57:18.167Z,9.719453
2023-03-29T00:58:18.158Z,9.719382
2023-03-29T00:59:18.136Z,9.719355
2023-03-29T01:00:18.148Z,9.719485
2023-03-29T01:01:18.106Z,9.719638
2023-03-29T01:02:18.137Z,9.719539
2023-03-29T01:03:18.146Z,9.719416
2023-03-29T01:04:18.121Z,9.719346
2023-03-29T01:05:18.079Z,9.719306
2023-03-29T01:06:18.087Z,9.719306
2023-03-29T01:07:18.145Z,9.719306
2023-03-29T01:08:18.041Z,9.719306
2023-03-29T01:09:18.060Z,9.719306
2023-03-29T01:10:18.049Z,9.719306
2023-03-29T01:11:18.064Z,9.719306
2023-03-29T01:12:18.016Z,9.719306
2023-03-29T01:13:17.988Z,9.719306
2023-03-29T01:14:17.962Z,9.719306
2023-03-29T01:15:17.953Z,9.718878
2023-03-29T01:16:18.073Z,9.718752
2023-03-29T01:17:17.947Z,9.718557
2023-03-29T01:18:17.926Z,9.718664
2023-03-29T01:19:17.949Z,9.718847
2023-03-29T01:20:17.918Z,9.718982
2023-03-29T01:21:17.937Z,9.719040
2023-03-29T01:22:17.901Z,9.719069
2023-03-29T01:23:17.963Z,9.719093
2023-03-29T01:24:17.912Z,9.719142
2023-03-29T01:25:17.878Z,9.719105
2023-03-29T01:26:17.887Z,9.719153
2023-03-29T01:27:17.879Z,9.719137
2023-03-29T01:28:17.872Z,9.719210
2023-03-29T01:29:17.836Z,9.719131
2023-03-29T01:30:17.849Z,9.719203
2023-03-29T01:31:17.821Z,9.719200
2023-03-29T01:32:17.857Z,9.719152
2023-03-29T01:33:17.840Z,9.719168
2023-03-29T01:34:17.802Z,9.719313
2023-03-29T01:35:17.779Z,9.719262
2023-03-29T01:36:17.880Z,9.719028
2023-03-29T01:37:17.814Z,9.719291
2023-03-29T01:38:17.740Z,9.719337
2023-03-29T01:39:17.721Z,9.719350
2023-03-29T01:40:17.768Z,9.719151
2023-03-29T01:41:17.729Z,9.719160
2023-03-29T01:42:17.704Z,9.719095
2023-03-29T01:43:17.704Z,9.719090
2023-03-29T01:44:17.697Z,9.719400
2023-03-29T01:45:17.687Z,9.719380
2023-03-29T01:46:17.770Z,9.719346
2023-03-29T01:47:17.644Z,9.719275
2023-03-29T01:48:17.672Z,9.719459
2023-03-29T01:49:17.638Z,9.719602
2023-03-29T01:50:17.697Z,9.719273
2023-03-29T01:51:17.662Z,9.719183
2023-03-29T01:52:17.673Z,9.719233
2023-03-29T01:53:17.593Z,9.719419
2023-03-29T01:54:17.617Z,9.719152
2023-03-29T01:55:17.587Z,9.719198
2023-03-29T01:56:17.603Z,9.719253
2023-03-29T01:57:17.622Z,9.719235
2023-03-29T01:58:17.535Z,9.719297
2023-03-29T01:59:17.552Z,9.719224
2023-03-29T02:00:17.583Z,9.719163
2023-03-29T02:01:17.648Z,9.719209
2023-03-29T02:02:17.581Z,9.719126
2023-03-29T02:03:17.688Z,9.719210
2023-03-29T02:04:17.550Z,9.719068
2023-03-29T02:05:17.479Z,9.719059
2023-03-29T02:06:17.479Z,9.719023
2023-03-29T02:07:17.468Z,9.719131
2023-03-29T02:08:17.491Z,9.718875
2023-03-29T02:09:17.478Z,9.718805
2023-03-29T02:10:49.353Z,9.719080
2023-03-29T02:11:17.435Z,9.719365
2023-03-29T02:12:17.422Z,9.719231
2023-03-29T02:13:17.425Z,9.719240
2023-03-29T02:14:17.408Z,9.719168
2023-03-29T02:15:17.393Z,9.718938
2023-03-29T02:16:17.414Z,9.718968
2023-03-29T02:17:17.389Z,9.719132
2023-03-29T02:18:17.376Z,9.719088
2023-03-29T02:19:17.388Z,9.719083
2023-03-29T02:20:17.415Z,9.718999
2023-03-29T02:21:17.461Z,9.719095
2023-03-29T02:22:17.361Z,9.719138
2023-03-29T02:23:17.298Z,9.719089
2023-03-29T02:24:17.309Z,9.719036
2023-03-29T02:25:17.302Z,9.719157
2023-03-29T02:26:17.339Z,9.719112
2023-03-29T02:27:17.303Z,9.719043
2023-03-29T02:28:17.291Z,9.718909
2023-03-29T02:29:17.284Z,9.718869
2023-03-29T02:30:17.236Z,9.718990
2023-03-29T02:31:17.252Z,9.718960
2023-03-29T02:32:17.238Z,9.719044
2023-03-29T02:33:17.243Z,9.719069
2023-03-29T02:34:17.223Z,9.718998
2023-03-29T02:35:17.225Z,9.719259
2023-03-29T02:36:17.219Z,9.718927
2023-03-29T02:37:17.177Z,9.718776
2023-03-29T02:38:17.156Z,9.719074
2023-03-29T02:39:17.156Z,9.719005
2023-03-29T02:40:17.173Z,9.719181
2023-03-29T02:41:17.117Z,9.719023
2023-03-29T02:42:17.205Z,9.719031
2023-03-29T02:43:17.129Z,9.719044
2023-03-29T02:44:17.141Z,9.719114
2023-03-29T02:45:17.198Z,9.719031
2023-03-29T02:46:17.229Z,9.719361
2023-03-29T02:47:17.172Z,9.719383
2023-03-29T02:48:17.236Z,9.719298
2023-03-29T02:49:18.086Z,9.719192
2023-03-29T02:50:17.137Z,9.719238
2023-03-29T02:51:19.779Z,9.719301
2023-03-29T02:52:18.085Z,9.719199
2023-03-29T02:53:17.029Z,9.719206
2023-03-29T02:54:17.032Z,9.719015
2023-03-29T02:55:17.107Z,9.719206
2023-03-29T02:56:16.976Z,9.719124
2023-03-29T02:57:16.997Z,9.719056
2023-03-29T02:58:16.975Z,9.719054
2023-03-29T02:59:16.977Z,9.719090
2023-03-29T03:00:16.974Z,9.719166
2023-03-29T03:01:16.945Z,9.719021
2023-03-29T03:02:16.982Z,9.719096
2023-03-29T03:03:17.066Z,9.719101
2023-03-29T03:04:16.887Z,9.719166
2023-03-29T03:05:16.935Z,9.719049
2023-03-29T03:06:16.914Z,9.719192
2023-03-29T03:07:16.887Z,9.719406
2023-03-29T03:08:16.881Z,9.719264
2023-03-29T03:09:16.942Z,9.719200
2023-03-29T03:10:16.846Z,9.719089
2023-03-29T03:11:16.831Z,9.719138
2023-03-29T03:12:16.912Z,9.719097
2023-03-29T03:13:16.818Z,9.719122
2023-03-29T03:14:16.835Z,9.719087
2023-03-29T03:15:16.802Z,9.719162
2023-03-29T03:16:16.831Z,9.719139
2023-03-29T03:17:16.791Z,9.719134
2023-03-29T03:18:16.867Z,9.719137
2023-03-29T03:19:16.819Z,9.719144
2023-03-29T03:20:16.790Z,9.719132
2023-03-29T03:21:16.726Z,9.719138
2023-03-29T03:22:16.729Z,9.719129
2023-03-29T03:23:16.739Z,9.719152
2023-03-29T03:24:16.703Z,9.719312
2023-03-29T03:25:16.743Z,9.719179
2023-03-29T03:26:16.740Z,9.719213
2023-03-29T03:27:16.716Z,9.719274
2023-03-29T03:28:16.672Z,9.719165
2023-03-29T03:29:16.697Z,9.719234
2023-03-29T03:30:16.663Z,9.719103
2023-03-29T03:31:16.712Z,9.719127
2023-03-29T03:32:16.663Z,9.719223
2023-03-29T03:33:16.606Z,9.719261
2023-03-29T03:34:16.624Z,9.719208
2023-03-29T03:35:16.608Z,9.719107
2023-03-29T03:36:16.595Z,9.719127
2023-03-29T03:37:16.620Z,9.719083
2023-03-29T03:38:16.596Z,9.719407
2023-03-29T03:39:16.577Z,9.719440
2023-03-29T03:40:16.571Z,9.719391
2023-03-29T03:41:16.562Z,9.719316
2023-03-29T03:42:17.567Z,9.719269
2023-03-29T03:43:16.516Z,9.719353
2023-03-29T03:44:16.546Z,9.719438
2023-03-29T03:45:16.566Z,9.719355
2023-03-29T03:46:16.575Z,9.719459
2023-03-29T03:47:16.521Z,9.719353
2023-03-29T03:48:16.515Z,9.719317
2023-03-29T03:49:16.497Z,9.719266
2023-03-29T03:50:16.485Z,9.719192
2023-03-29T03:51:16.483Z,9.719280
2023-03-29T03:52:16.445Z,9.719159
2023-03-29T03:53:16.472Z,9.719186
2023-03-29T03:54:16.433Z,9.719131
2023-03-29T03:55:17.424Z,9.719212
2023-03-29T03:56:16.429Z,9.719303
2023-03-29T03:57:16.423Z,9.719299
2023-03-29T03:58:16.472Z,9.719331
2023-03-29T03:59:16.431Z,9.719273
2023-03-29T04:00:16.389Z,9.719307
2023-03-29T04:01:16.355Z,9.719351
2023-03-29T04:02:16.438Z,9.719365
2023-03-29T04:03:16.473Z,9.719329
2023-03-29T04:04:16.430Z,9.719290
2023-03-29T04:05:16.398Z,9.719269
2023-03-29T04:06:16.350Z,9.719218
2023-03-29T04:07:16.297Z,9.719318
2023-03-29T04:08:16.314Z,9.719301
2023-03-29T04:09:16.278Z,9.719291
2023-03-29T04:10:16.269Z,9.719256
2023-03-29T04:11:16.268Z,9.719258
2023-03-29T04:12:16.270Z,9.719290
2023-03-29T04:13:16.235Z,9.719265
2023-03-29T04:14:16.229Z,9.719347
2023-03-29T04:15:16.220Z,9.719357
2023-03-29T04:16:16.342Z,9.719324
2023-03-29T04:17:16.184Z,9.719299
2023-03-29T04:18:16.330Z,9.719296
2023-03-29T04:19:16.174Z,9.719346
2023-03-29T04:20:16.242Z,9.719300
2023-03-29T04:21:17.012Z,9.719287
2023-03-29T04:22:16.190Z,9.719264
2023-03-29T04:23:16.172Z,9.719290
2023-03-29T04:24:16.156Z,9.719272
2023-03-29T04:25:16.137Z,9.719280
2023-03-29T04:26:16.158Z,9.719278
2023-03-29T04:27:16.121Z,9.719241
2023-03-29T04:28:16.105Z,9.719266
2023-03-29T04:29:16.097Z,9.719232
2023-03-29T04:30:16.092Z,9.719294
2023-03-29T04:31:16.130Z,9.719249
2023-03-29T04:32:16.049Z,9.719342
2023-03-29T04:33:16.066Z,9.719413
2023-03-29T04:34:16.043Z,9.719294
2023-03-29T04:35:16.048Z,9.719222
2023-03-29T04:36:16.155Z,9.719270
2023-03-29T04:37:16.005Z,9.719298
2023-03-29T04:38:16.007Z,9.719127
2023-03-29T04:39:16.009Z,9.719103
2023-03-29T04:40:16.003Z,9.719151
2023-03-29T04:41:15.968Z,9.719111
2023-03-29T04:42:15.967Z,9.719172
2023-03-29T04:43:15.974Z,9.719232
2023-03-29T04:44:16.030Z,9.719273
2023-03-29T04:45:16.006Z,9.719185
2023-03-29T04:46:16.126Z,9.719183
2023-03-29T04:47:15.937Z,9.719149
2023-03-29T04:48:16.009Z,9.719144
2023-03-29T04:49:15.884Z,9.719162
2023-03-29T04:50:15.952Z,9.719136
2023-03-29T04:51:15.924Z,9.719086
2023-03-29T04:52:15.873Z,9.719115
2023-03-29T04:53:15.875Z,9.718889
2023-03-29T04:54:15.970Z,9.719164
2023-03-29T04:55:15.843Z,9.719112
2023-03-29T04:56:15.827Z,9.718849
2023-03-29T04:57:15.856Z,9.718257
2023-03-29T04:58:15.845Z,9.718956
2023-03-29T04:59:15.829Z,9.719229
2023-03-29T05:00:15.943Z,9.719189
2023-03-29T05:01:15.866Z,9.719106
2023-03-29T05:02:15.795Z,9.719219
2023-03-29T05:03:15.811Z,9.718968
2023-03-29T05:04:15.814Z,9.718997
2023-03-29T05:05:15.751Z,9.719190
2023-03-29T05:06:15.724Z,9.719206
2023-03-29T05:07:15.769Z,9.719241
2023-03-29T05:08:15.709Z,9.719243
2023-03-29T05:09:15.698Z,9.719006
2023-03-29T05:10:15.683Z,9.719074
2023-03-29T05:11:15.683Z,9.719236
2023-03-29T05:12:15.677Z,9.719266
2023-03-29T05:13:15.646Z,9.719301
2023-03-29T05:14:15.670Z,9.719081
2023-03-29T05:15:15.667Z,9.718989
2023-03-29T05:16:15.694Z,9.719011
2023-03-29T05:17:15.617Z,9.719347
2023-03-29T05:18:15.668Z,9.719424
2023-03-29T05:19:15.639Z,9.719299
2023-03-29T05:20:15.624Z,9.719260
2023-03-29T05:21:15.583Z,9.719273
2023-03-29T05:22:15.587Z,9.719268
2023-03-29T05:23:15.563Z,9.719310
2023-03-29T05:24:15.556Z,9.719349
2023-03-29T05:25:15.553Z,9.719235
2023-03-29T05:26:15.567Z,9.719176
2023-03-29T05:27:15.558Z,9.719235
2023-03-29T05:28:15.702Z,9.718973
2023-03-29T05:29:15.510Z,9.719193
2023-03-29T05:30:15.526Z,9.719266
2023-03-29T05:31:16.965Z,9.719327
2023-03-29T05:32:16.503Z,9.719307
2023-03-29T05:33:15.498Z,9.719376
2023-03-29T05:34:15.459Z,9.719198
2023-03-29T05:35:15.463Z,9.719191
2023-03-29T05:36:15.607Z,9.719284
2023-03-29T05:37:15.441Z,9.719252
2023-03-29T05:38:15.450Z,9.719213
2023-03-29T05:39:15.449Z,9.719192
2023-03-29T05:40:15.428Z,9.719267
2023-03-29T05:41:15.424Z,9.719355
2023-03-29T05:42:15.488Z,9.719207
2023-03-29T05:43:15.415Z,9.719228
2023-03-29T05:44:15.354Z,9.719252
2023-03-29T05:45:15.355Z,9.719327
2023-03-29T05:46:15.982Z,9.719277
2023-03-29T05:47:16.354Z,9.719324
2023-03-29T05:48:15.348Z,9.719317
2023-03-29T05:49:15.337Z,9.719197
2023-03-29T05:50:15.299Z,9.719325
2023-03-29T05:51:15.327Z,9.719318
2023-03-29T05:52:15.295Z,9.719331
2023-03-29T05:53:15.387Z,9.719439
2023-03-29T05:54:15.270Z,9.719439
2023-03-29T05:55:15.258Z,9.719408
2023-03-29T05:56:15.246Z,9.719383
2023-03-29T05:57:15.251Z,9.719398
2023-03-29T05:58:15.230Z,9.719419
2023-03-29T05:59:15.233Z,9.719387
2023-03-29T06:00:15.256Z,9.719296
2023-03-29T06:01:15.198Z,9.719237
2023-03-29T06:02:15.240Z,9.719288
2023-03-29T06:03:21.555Z,9.719422
2023-03-29T06:04:17.248Z,9.719594
2023-03-29T06:05:15.208Z,9.719443
2023-03-29T06:06:15.154Z,9.719501
2023-03-29T06:07:15.143Z,9.719159
2023-03-29T06:08:15.105Z,9.719187
2023-03-29T06:09:15.129Z,9.719337
2023-03-29T06:10:15.137Z,9.719188
2023-03-29T06:11:15.104Z,9.719121
2023-03-29T06:12:15.155Z,9.719110
2023-03-29T06:13:15.067Z,9.719068
2023-03-29T06:14:15.070Z,9.719027
2023-03-29T06:15:15.034Z,9.718961
2023-03-29T06:16:15.053Z,9.719117
2023-03-29T06:17:15.119Z,9.718811
2023-03-29T06:18:15.029Z,9.719112
2023-03-29T06:19:15.025Z,9.718966
2023-03-29T06:20:15.060Z,9.719090
2023-03-29T06:21:15.022Z,9.719098
2023-03-29T06:22:15.068Z,9.719110
2023-03-29T06:23:15.959Z,9.719258
2023-03-29T06:24:15.002Z,9.719063
2023-03-29T06:25:14.962Z,9.719156
2023-03-29T06:26:14.927Z,9.719026
2023-03-29T06:27:14.968Z,9.719120
2023-03-29T06:28:14.939Z,9.719199
2023-03-29T06:29:14.972Z,9.719349
2023-03-29T06:30:14.937Z,9.719186
2023-03-29T06:31:14.924Z,9.718935
2023-03-29T06:32:14.895Z,9.718806
2023-03-29T06:33:14.921Z,9.718551
2023-03-29T06:34:14.889Z,9.718842
2023-03-29T06:35:14.917Z,9.718858
2023-03-29T06:36:14.869Z,9.719053
2023-03-29T06:37:14.840Z,9.718845
2023-03-29T06:38:14.861Z,9.718918
2023-03-29T06:39:14.869Z,9.718929
2023-03-29T06:40:14.824Z,9.719071
2023-03-29T06:41:14.818Z,9.719258
2023-03-29T06:42:21.254Z,9.719147
2023-03-29T06:43:16.814Z,9.719226
2023-03-29T06:44:14.826Z,9.718836
2023-03-29T06:45:14.761Z,9.718790
2023-03-29T06:46:15.096Z,9.719042
2023-03-29T06:47:14.728Z,9.719103
2023-03-29T06:48:14.759Z,9.719131
2023-03-29T06:49:14.761Z,9.719167
2023-03-29T06:50:14.757Z,9.719163
2023-03-29T06:51:14.722Z,9.719114
2023-03-29T06:52:14.687Z,9.719062
2023-03-29T06:53:14.697Z,9.719143
2023-03-29T06:54:14.684Z,9.719137
2023-03-29T06:55:14.710Z,9.718919
2023-03-29T06:56:14.715Z,9.719085
2023-03-29T06:57:14.739Z,9.719163
2023-03-29T06:58:14.666Z,9.719163
2023-03-29T06:59:14.743Z,9.719262
2023-03-29T07:00:14.628Z,9.719164
2023-03-29T07:01:14.626Z,9.719098
2023-03-29T07:02:14.672Z,9.719154
2023-03-29T07:03:14.751Z,9.719155
2023-03-29T07:04:14.610Z,9.719117
2023-03-29T07:05:14.594Z,9.719177
2023-03-29T07:06:14.561Z,9.719203
2023-03-29T07:07:14.555Z,9.719142
2023-03-29T07:08:14.552Z,9.719119
2023-03-29T07:09:14.514Z,9.719062
2023-03-29T07:10:14.526Z,9.719155
2023-03-29T07:11:14.511Z,9.719082
2023-03-29T07:12:14.506Z,9.719039
2023-03-29T07:13:14.606Z,9.719011
2023-03-29T07:14:14.489Z,9.719141
2023-03-29T07:15:14.477Z,9.719090
2023-03-29T07:16:14.558Z,9.718883
2023-03-29T07:17:14.490Z,9.719013
2023-03-29T07:18:14.516Z,9.719067
2023-03-29T07:19:14.425Z,9.719039
2023-03-29T07:20:14.448Z,9.718913
2023-03-29T07:21:14.463Z,9.718848
2023-03-29T07:22:14.407Z,9.718972
2023-03-29T07:23:14.408Z,9.718828
2023-03-29T07:24:14.418Z,9.718962
2023-03-29T07:25:14.413Z,9.718873
2023-03-29T07:26:14.367Z,9.718876
2023-03-29T07:27:15.343Z,9.718855
2023-03-29T07:28:14.345Z,9.718918
2023-03-29T07:29:14.386Z,9.719013
2023-03-29T07:30:14.323Z,9.719112
2023-03-29T07:31:14.415Z,9.718981
2023-03-29T07:32:14.341Z,9.718765
2023-03-29T07:33:14.585Z,9.718702
2023-03-29T07:34:14.284Z,9.718889
2023-03-29T07:35:14.562Z,9.718712
2023-03-29T07:36:14.293Z,9.718740
2023-03-29T07:37:14.300Z,9.718707
2023-03-29T07:38:14.249Z,9.718876
2023-03-29T07:39:14.234Z,9.718898
2023-03-29T07:40:14.239Z,9.718765
2023-03-29T07:41:14.233Z,9.718770
2023-03-29T07:42:14.202Z,9.718915
2023-03-29T07:43:14.269Z,9.718924
2023-03-29T07:44:14.199Z,9.718889
2023-03-29T07:45:14.168Z,9.718857
2023-03-29T07:46:14.278Z,9.718879
2023-03-29T07:47:14.239Z,9.718981
2023-03-29T07:48:14.236Z,9.719002
2023-03-29T07:49:14.197Z,9.719013
2023-03-29T07:50:14.105Z,9.719096
2023-03-29T07:51:14.104Z,9.719167
2023-03-29T07:52:14.169Z,9.719176
2023-03-29T07:53:14.100Z,9.719131
2023-03-29T07:54:14.105Z,9.719268
2023-03-29T07:55:14.076Z,9.719095
2023-03-29T07:56:14.087Z,9.719092
2023-03-29T07:57:14.071Z,9.719055
2023-03-29T07:58:14.075Z,9.719074
2023-03-29T07:59:14.041Z,9.719193
2023-03-29T08:00:14.185Z,9.719296
2023-03-29T08:01:16.401Z,9.719362
2023-03-29T08:02:14.977Z,9.719238
2023-03-29T08:03:14.073Z,9.719275
2023-03-29T08:04:14.095Z,9.719328
2023-03-29T08:05:14.012Z,9.719204
2023-03-29T08:06:13.978Z,9.719051
2023-03-29T08:07:15.284Z,9.719248
2023-03-29T08:08:13.976Z,9.719467
2023-03-29T08:09:13.942Z,9.719331
2023-03-29T08:10:45.848Z,9.719396
2023-03-29T08:11:13.979Z,9.719364
2023-03-29T08:12:14.024Z,9.719268
2023-03-29T08:13:13.906Z,9.719319
2023-03-29T08:14:13.949Z,9.719302
2023-03-29T08:15:13.865Z,9.719353
2023-03-29T08:16:13.891Z,9.719398
2023-03-29T08:17:13.901Z,9.719508
2023-03-29T08:18:13.889Z,9.719565
2023-03-29T08:19:13.921Z,9.719428
2023-03-29T08:20:13.838Z,9.719357
2023-03-29T08:21:13.843Z,9.719388
2023-03-29T08:22:13.804Z,9.719324
2023-03-29T08:23:13.827Z,9.719329
2023-03-29T08:24:13.788Z,9.719393
2023-03-29T08:25:13.783Z,9.719404
2023-03-29T08:26:13.781Z,9.719264
2023-03-29T08:27:13.738Z,9.719324
2023-03-29T08:28:13.764Z,9.719405
2023-03-29T08:29:13.757Z,9.719575
2023-03-29T08:30:13.731Z,9.719463
2023-03-29T08:31:13.771Z,9.719463
2023-03-29T08:32:13.810Z,9.719381
2023-03-29T08:33:13.753Z,9.719355
2023-03-29T08:34:13.789Z,9.719502
2023-03-29T08:35:13.692Z,9.719396
2023-03-29T08:36:13.745Z,9.719294
2023-03-29T08:37:13.744Z,9.719348
2023-03-29T08:38:13.662Z,9.719380
2023-03-29T08:39:13.666Z,9.719342
2023-03-29T08:40:13.649Z,9.719327
2023-03-29T08:41:13.591Z,9.719318
2023-03-29T08:42:13.621Z,9.719204
2023-03-29T08:43:13.654Z,9.719270
2023-03-29T08:44:13.650Z,9.719249
2023-03-29T08:45:13.570Z,9.719256
2023-03-29T08:46:13.580Z,9.719250
2023-03-29T08:47:13.585Z,9.719258
2023-03-29T08:48:13.606Z,9.719266
2023-03-29T08:49:13.565Z,9.719177
2023-03-29T08:50:13.551Z,9.719097
2023-03-29T08:51:13.538Z,9.719162
2023-03-29T08:52:13.615Z,9.719030
2023-03-29T08:53:13.499Z,9.719062
2023-03-29T08:54:13.474Z,9.719108
2023-03-29T08:55:13.547Z,9.719109
2023-03-29T08:56:13.488Z,9.719160
2023-03-29T08:57:13.590Z,9.719254
2023-03-29T08:58:13.503Z,9.719230
2023-03-29T08:59:13.449Z,9.719278
2023-03-29T09:00:13.419Z,9.719290
2023-03-29T09:01:13.420Z,9.719219
2023-03-29T09:02:13.503Z,9.719132
2023-03-29T09:03:13.611Z,9.719096
2023-03-29T09:04:13.501Z,9.719163
2023-03-29T09:05:13.449Z,9.719174
2023-03-29T09:06:13.372Z,9.719192
2023-03-29T09:07:13.415Z,9.719237
2023-03-29T09:08:13.358Z,9.719270
2023-03-29T09:09:13.338Z,9.719213
2023-03-29T09:10:13.345Z,9.719160
2023-03-29T09:11:13.346Z,9.719220
2023-03-29T09:12:13.297Z,9.719292
2023-03-29T09:13:14.414Z,9.719183
2023-03-29T09:14:13.340Z,9.719108
2023-03-29T09:15:13.297Z,9.719086
2023-03-29T09:16:13.404Z,9.719216
2023-03-29T09:17:13.267Z,9.719329
2023-03-29T09:18:13.363Z,9.719318
2023-03-29T09:19:13.254Z,9.719230
2023-03-29T09:20:13.221Z,9.719211
2023-03-29T09:21:13.244Z,9.719186
2023-03-29T09:22:13.277Z,9.719180
2023-03-29T09:23:13.212Z,9.719110
2023-03-29T09:24:13.176Z,9.719141
2023-03-29T09:25:13.180Z,9.719075
2023-03-29T09:26:13.277Z,9.719048
2023-03-29T09:27:13.162Z,9.719171
2023-03-29T09:28:13.167Z,9.719248
2023-03-29T09:29:13.191Z,9.719202
2023-03-29T09:30:13.188Z,9.719172
2023-03-29T09:31:13.208Z,9.719124
2023-03-29T09:32:13.164Z,9.719158
2023-03-29T09:33:13.155Z,9.719187
2023-03-29T09:34:14.437Z,9.719174
2023-03-29T09:35:13.088Z,9.719296
2023-03-29T09:36:13.166Z,9.719350
2023-03-29T09:37:13.111Z,9.719264
2023-03-29T09:38:13.066Z,9.719189
2023-03-29T09:39:13.043Z,9.719305
2023-03-29T09:40:13.035Z,9.719258
2023-03-29T09:41:13.015Z,9.719330
2023-03-29T09:42:12.999Z,9.719225
2023-03-29T09:43:13.051Z,9.719335
2023-03-29T09:44:24.230Z,9.719223
2023-03-29T09:45:15.030Z,9.719121
2023-03-29T09:46:13.058Z,9.719244
2023-03-29T09:47:13.009Z,9.719292
2023-03-29T09:48:13.001Z,9.719362
2023-03-29T09:49:14.031Z,9.719249
2023-03-29T09:50:23.473Z,9.719281
2023-03-29T09:51:13.922Z,9.719206
2023-03-29T09:52:12.973Z,9.719275
2023-03-29T09:53:12.951Z,9.719249
2023-03-29T09:54:12.895Z,9.719065
2023-03-29T09:55:12.898Z,9.719175
2023-03-29T09:56:12.926Z,9.719125
2023-03-29T09:57:12.895Z,9.719139
2023-03-29T09:58:12.847Z,9.719151
2023-03-29T09:59:12.893Z,9.718864
2023-03-29T10:00:12.843Z,9.718849
2023-03-29T10:01:12.862Z,9.719109
2023-03-29T10:02:12.838Z,9.719250
2023-03-29T10:03:12.850Z,9.719140
2023-03-29T10:04:12.810Z,9.718968
2023-03-29T10:05:12.823Z,9.719194
2023-03-29T10:06:12.788Z,9.719432
2023-03-29T10:07:12.773Z,9.719155
2023-03-29T10:08:12.772Z,9.719047
2023-03-29T10:09:12.740Z,9.719027
2023-03-29T10:10:12.746Z,9.719201
2023-03-29T10:11:12.736Z,9.719030
2023-03-29T10:12:12.732Z,9.719234
2023-03-29T10:13:12.711Z,9.719203
2023-03-29T10:14:12.731Z,9.719219
2023-03-29T10:15:23.237Z,9.719204
2023-03-29T10:16:14.769Z,9.719090
2023-03-29T10:17:12.696Z,9.719182
2023-03-29T10:18:12.700Z,9.719336
2023-03-29T10:19:12.658Z,9.719373
2023-03-29T10:20:12.661Z,9.719314
2023-03-29T10:21:12.671Z,9.719334
2023-03-29T10:22:12.664Z,9.719228
2023-03-29T10:23:12.636Z,9.719258
2023-03-29T10:24:12.639Z,9.719254
2023-03-29T10:25:12.580Z,9.719215
2023-03-29T10:26:12.607Z,9.719230
2023-03-29T10:27:12.588Z,9.719206
2023-03-29T10:28:12.554Z,9.719188
2023-03-29T10:29:12.601Z,9.719208
2023-03-29T10:30:12.555Z,9.719156
2023-03-29T10:31:12.558Z,9.719133
2023-03-29T10:32:12.603Z,9.719246
2023-03-29T10:33:12.573Z,9.719342
2023-03-29T10:34:12.484Z,9.719342
2023-03-29T10:35:12.519Z,9.719306
2023-03-29T10:36:12.510Z,9.719217
2023-03-29T10:37:12.562Z,9.719277
2023-03-29T10:38:12.482Z,9.719276
2023-03-29T10:39:12.484Z,9.719084
2023-03-29T10:40:12.456Z,9.719030
2023-03-29T10:41:12.478Z,9.719230
2023-03-29T10:42:12.449Z,9.719212
2023-03-29T10:43:12.521Z,9.719288
2023-03-29T10:44:12.415Z,9.719316
2023-03-29T10:45:12.393Z,9.719284
2023-03-29T10:46:12.406Z,9.719311
2023-03-29T10:47:12.424Z,9.719267
2023-03-29T10:48:12.368Z,9.719181
2023-03-29T10:49:12.420Z,9.719044
2023-03-29T10:50:12.347Z,9.719090
2023-03-29T10:51:12.355Z,9.719139
2023-03-29T10:52:12.340Z,9.719216
2023-03-29T10:53:12.410Z,9.719183
2023-03-29T10:54:12.344Z,9.719225
2023-03-29T10:55:12.316Z,9.719069
2023-03-29T10:56:12.435Z,9.719064
2023-03-29T10:57:12.330Z,9.719064
2023-03-29T10:58:12.269Z,9.719151
2023-03-29T10:59:12.245Z,9.719196
2023-03-29T11:00:12.340Z,9.719047
2023-03-29T11:01:12.246Z,9.719073
2023-03-29T11:02:12.271Z,9.719070
2023-03-29T11:03:14.340Z,9.719159
2023-03-29T11:04:12.211Z,9.719341
2023-03-29T11:05:12.200Z,9.719193
2023-03-29T11:06:12.208Z,9.719274
2023-03-29T11:07:12.183Z,9.719174
2023-03-29T11:08:12.150Z,9.719308
2023-03-29T11:09:12.184Z,9.719334
2023-03-29T11:10:12.211Z,9.719209
2023-03-29T11:11:13.174Z,9.719409
2023-03-29T11:12:16.170Z,9.719198
2023-03-29T11:13:13.104Z,9.719071
2023-03-29T11:14:12.113Z,9.718965
2023-03-29T11:15:12.147Z,9.719150
2023-03-29T11:16:12.146Z,9.719359
2023-03-29T11:17:12.057Z,9.719458
2023-03-29T11:18:12.129Z,9.719369
2023-03-29T11:19:12.080Z,9.719407
2023-03-29T11:20:12.125Z,9.719264
2023-03-29T11:21:12.055Z,9.719188
2023-03-29T11:22:12.062Z,9.719277
2023-03-29T11:23:12.032Z,9.719369
2023-03-29T11:24:12.008Z,9.719354
2023-03-29T11:25:12.043Z,9.719356
2023-03-29T11:26:11.991Z,9.719523
2023-03-29T11:27:12.000Z,9.719481
2023-03-29T11:28:12.005Z,9.719314
2023-03-29T11:29:11.956Z,9.719222
2023-03-29T11:30:12.065Z,9.719054
2023-03-29T11:31:12.075Z,9.719385
2023-03-29T11:32:11.936Z,9.719322
2023-03-29T11:33:11.918Z,9.719361
2023-03-29T11:34:11.981Z,9.719308
2023-03-29T11:35:11.919Z,9.719206
2023-03-29T11:36:11.938Z,9.719210
2023-03-29T11:37:11.879Z,9.719379
2023-03-29T11:38:11.852Z,9.719271
2023-03-29T11:39:11.988Z,9.719268
2023-03-29T11:40:12.074Z,9.719165
2023-03-29T11:41:11.847Z,9.718955
2023-03-29T11:42:11.839Z,9.718999
2023-03-29T11:43:11.884Z,9.719185
2023-03-29T11:44:11.808Z,9.719327